Time;durP1;ratioP1;P1;durP2;ratioP2;P2;SDS_P1;SDS_P2;PMS_P1;PMS_P2;Temp;Humidity;BMP_temperature;BMP_pressure;BME280_temperature;BME280_humidity;BME280_pressure;Samples;Min_cycle;Max_cycle;Signal;HPM_P1;HPM_P2
2021/03/13 00:01:31;;;;;;;9.13;2.37;;;7.20;99.90;;;;;;5014109;28;20201;-70
2021/03/13 00:03:57;;;;;;;11.87;2.47;;;7.20;99.90;;;;;;5013590;28;20208;-70
2021/03/13 00:06:24;;;;;;;5.87;1.97;;;7.20;99.90;;;;;;5009989;28;20205;-69
2021/03/13 00:08:51;;;;;;;9.67;2.60;;;7.20;99.90;;;;;;5018193;28;20236;-69
2021/03/13 00:11:18;;;;;;;5.87;1.70;;;7.10;99.90;;;;;;5015473;28;20228;-69
2021/03/13 00:13:44;;;;;;;8.73;2.67;;;7.00;99.90;;;;;;5013412;28;20239;-69
2021/03/13 00:16:11;;;;;;;10.50;2.57;;;6.90;99.90;;;;;;5015090;28;20200;-68
2021/03/13 00:18:37;;;;;;;10.47;2.33;;;6.90;99.90;;;;;;5011700;28;20225;-68
2021/03/13 00:21:05;;;;;;;11.87;3.30;;;6.80;99.90;;;;;;5018336;28;20224;-68
2021/03/13 00:23:32;;;;;;;8.73;2.53;;;6.70;99.90;;;;;;5032083;28;20249;-68
2021/03/13 00:26:00;;;;;;;12.00;2.80;;;6.70;99.90;;;;;;5028507;28;20569;-68
2021/03/13 00:28:26;;;;;;;9.23;2.53;;;6.70;99.90;;;;;;5031139;28;20223;-68
2021/03/13 00:30:53;;;;;;;11.70;2.87;;;6.70;99.90;;;;;;5024377;28;20191;-68
2021/03/13 00:33:20;;;;;;;12.30;3.37;;;6.70;99.90;;;;;;5031197;28;20200;-68
2021/03/13 00:35:49;;;;;;;14.63;4.00;;;6.60;99.90;;;;;;5030732;28;20250;-68
2021/03/13 00:38:16;;;;;;;9.87;3.43;;;6.60;99.90;;;;;;5017122;28;20227;-68
2021/03/13 00:40:44;;;;;;;6.93;3.57;;;6.60;99.90;;;;;;5012510;28;20204;-69
2021/03/13 00:43:12;;;;;;;15.50;4.27;;;6.60;99.90;;;;;;5014495;28;20204;-68
2021/03/13 00:45:40;;;;;;;15.03;4.70;;;6.60;99.90;;;;;;5012055;28;20212;-69
2021/03/13 00:48:08;;;;;;;13.73;4.33;;;6.60;99.90;;;;;;5013034;28;20727;-69
2021/03/13 00:50:36;;;;;;;11.80;4.77;;;6.60;99.90;;;;;;5012427;28;20196;-68
2021/03/13 00:53:03;;;;;;;11.10;5.03;;;6.60;99.90;;;;;;5015233;28;20229;-69
2021/03/13 00:55:30;;;;;;;15.20;5.23;;;6.60;99.90;;;;;;5010136;28;20204;-69
2021/03/13 00:57:57;;;;;;;12.63;5.13;;;6.60;99.90;;;;;;5013301;28;20255;-69
2021/03/13 01:00:26;;;;;;;19.50;5.17;;;6.60;99.90;;;;;;5013825;28;20624;-69
2021/03/13 01:02:53;;;;;;;13.77;5.77;;;6.60;99.90;;;;;;5012795;28;20200;-69
2021/03/13 01:05:20;;;;;;;15.97;5.43;;;6.60;99.90;;;;;;5011764;28;20230;-69
2021/03/13 01:07:47;;;;;;;10.23;4.60;;;6.60;99.90;;;;;;5014757;28;20235;-69
2021/03/13 01:10:17;;;;;;;15.77;6.07;;;6.60;99.90;;;;;;5010460;28;20335;-70
2021/03/13 01:12:45;;;;;;;11.03;4.30;;;6.60;99.90;;;;;;5014216;28;20201;-69
2021/03/13 01:15:14;;;;;;;11.00;4.37;;;6.50;99.90;;;;;;5010527;28;20200;-70
2021/03/13 01:17:42;;;;;;;13.33;4.90;;;6.50;99.90;;;;;;5018012;28;20247;-70
2021/03/13 01:20:11;;;;;;;10.73;4.47;;;6.60;99.90;;;;;;5014647;28;20232;-69
2021/03/13 01:22:39;;;;;;;7.80;3.73;;;6.50;99.90;;;;;;5015540;28;20231;-70
2021/03/13 01:25:07;;;;;;;16.27;4.37;;;6.50;99.90;;;;;;5010798;28;20220;-70
2021/03/13 01:27:33;;;;;;;10.43;3.90;;;6.60;99.90;;;;;;5012345;28;20859;-71
2021/03/13 01:30:00;;;;;;;7.40;3.63;;;6.60;99.90;;;;;;5014700;28;20201;-70
2021/03/13 01:32:27;;;;;;;14.33;4.57;;;6.60;99.90;;;;;;5012643;28;20311;-70
2021/03/13 01:34:54;;;;;;;6.13;4.10;;;6.60;99.90;;;;;;5017677;28;20243;-70
2021/03/13 01:37:22;;;;;;;12.90;4.70;;;6.60;99.90;;;;;;5013288;28;20282;-70
2021/03/13 01:39:49;;;;;;;8.43;4.60;;;6.60;99.90;;;;;;5015278;28;20244;-69
2021/03/13 01:42:15;;;;;;;10.97;4.30;;;6.60;99.90;;;;;;5020880;28;20200;-69
2021/03/13 01:44:42;;;;;;;9.03;4.93;;;6.60;99.90;;;;;;5016662;28;20661;-70
2021/03/13 01:47:15;;;;;;;9.63;4.30;;;6.60;99.90;;;;;;5013767;28;20204;-70
2021/03/13 01:49:41;;;;;;;13.00;4.83;;;6.60;99.90;;;;;;5019334;28;20210;-70
2021/03/13 01:52:08;;;;;;;9.83;3.77;;;6.60;99.90;;;;;;5017115;28;20323;-69
2021/03/13 01:54:35;;;;;;;8.07;4.10;;;6.70;99.90;;;;;;5017126;28;20208;-69
2021/03/13 01:57:02;;;;;;;8.27;3.67;;;6.70;99.90;;;;;;5017075;28;20248;-69
2021/03/13 01:59:29;;;;;;;10.73;4.27;;;6.80;99.90;;;;;;5014185;28;20228;-70
2021/03/13 02:01:56;;;;;;;11.67;4.40;;;6.70;99.90;;;;;;5016268;28;21182;-69
2021/03/13 02:04:22;;;;;;;8.63;3.70;;;6.70;99.90;;;;;;5020049;28;20294;-69
2021/03/13 02:06:58;;;;;;;8.57;4.20;;;6.70;99.90;;;;;;5018396;28;20430;-69
2021/03/13 02:09:30;;;;;;;8.47;3.50;;;6.70;99.90;;;;;;5013323;28;20304;-70
2021/03/13 02:12:12;;;;;;;9.80;3.60;;;6.80;99.90;;;;;;5013463;28;20204;-69
2021/03/13 02:14:47;;;;;;;7.87;4.07;;;6.80;99.90;;;;;;5017387;28;20680;-69
2021/03/13 02:17:18;;;;;;;6.93;3.20;;;6.80;99.90;;;;;;5013396;28;20211;-68
2021/03/13 02:20:15;;;;;;;10.83;3.53;;;6.80;99.90;;;;;;5019134;28;20248;-69
2021/03/13 02:22:43;;;;;;;10.17;4.23;;;6.80;99.90;;;;;;4994381;28;20598;-69
2021/03/13 02:25:20;;;;;;;10.57;3.40;;;6.80;99.90;;;;;;5014890;28;20211;-69
2021/03/13 02:27:56;;;;;;;13.27;3.97;;;6.80;99.90;;;;;;5013960;28;20204;-69
2021/03/13 02:30:26;;;;;;;8.40;2.97;;;6.90;99.90;;;;;;5010277;28;20214;-69
2021/03/13 02:33:02;;;;;;;9.20;3.00;;;6.90;99.90;;;;;;5014736;28;20244;-68
2021/03/13 02:35:32;;;;;;;7.00;3.40;;;6.90;99.90;;;;;;5008144;28;20325;-69
2021/03/13 02:38:03;;;;;;;6.80;3.50;;;6.90;99.90;;;;;;5011520;28;20406;-69
2021/03/13 02:40:31;;;;;;;7.47;3.30;;;6.90;99.90;;;;;;5014371;28;20678;-69
2021/03/13 02:43:00;;;;;;;7.77;3.10;;;6.90;99.90;;;;;;5018362;28;20211;-69
2021/03/13 02:45:29;;;;;;;7.77;3.27;;;6.90;99.90;;;;;;5015771;28;20204;-69
2021/03/13 02:47:56;;;;;;;9.50;3.23;;;6.90;99.90;;;;;;5017251;28;20286;-69
2021/03/13 02:50:25;;;;;;;8.80;3.00;;;7.00;99.90;;;;;;5013422;28;20211;-70
2021/03/13 02:52:55;;;;;;;8.73;3.03;;;6.90;99.90;;;;;;5015771;28;20724;-68
2021/03/13 02:55:23;;;;;;;6.60;2.80;;;7.00;99.90;;;;;;5014603;28;20204;-70
2021/03/13 02:57:53;;;;;;;7.13;2.97;;;7.00;99.90;;;;;;5015389;28;20231;-69
2021/03/13 03:00:22;;;;;;;10.47;3.17;;;7.00;99.90;;;;;;5014685;28;20252;-70
2021/03/13 03:02:54;;;;;;;5.40;2.70;;;7.10;99.90;;;;;;5010259;28;20207;-69
2021/03/13 03:05:22;;;;;;;5.60;2.63;;;7.10;99.90;;;;;;5018310;28;21041;-69
2021/03/13 03:07:51;;;;;;;5.83;2.40;;;7.10;99.90;;;;;;5017299;28;20296;-69
2021/03/13 03:10:19;;;;;;;6.93;2.80;;;7.20;99.90;;;;;;5013431;28;20319;-70
2021/03/13 03:12:48;;;;;;;10.07;3.40;;;7.10;99.90;;;;;;5015053;28;20215;-70
2021/03/13 03:15:16;;;;;;;7.07;2.77;;;7.10;99.90;;;;;;5015096;28;20205;-69
2021/03/13 03:17:43;;;;;;;3.37;1.90;;;7.10;99.90;;;;;;5014430;28;20197;-69
2021/03/13 03:20:12;;;;;;;3.53;2.43;;;7.20;99.90;;;;;;5012319;28;20224;-69
2021/03/13 03:22:39;;;;;;;2.63;2.10;;;7.20;99.90;;;;;;5013528;28;20205;-71
2021/03/13 03:25:08;;;;;;;0.20;0.20;;;7.20;99.90;;;;;;5013386;28;20207;-70
2021/03/13 03:27:35;;;;;;;0.00;0.00;;;7.20;99.90;;;;;;5015745;28;20205;-70
2021/03/13 03:30:03;;;;;;;0.00;0.00;;;7.20;99.90;;;;;;5013030;28;20205;-70
2021/03/13 03:32:30;;;;;;;0.10;0.10;;;7.20;99.90;;;;;;5015909;28;20239;-71
2021/03/13 03:34:56;;;;;;;0.33;0.33;;;7.20;99.90;;;;;;5018348;28;20831;-72
2021/03/13 03:37:24;;;;;;;0.00;0.00;;;7.30;99.90;;;;;;5013138;28;20744;-70
2021/03/13 03:39:50;;;;;;;0.43;0.43;;;7.30;99.90;;;;;;5010933;28;20698;-70
2021/03/13 03:42:18;;;;;;;0.07;0.07;;;7.30;99.90;;;;;;5015636;28;20204;-71
2021/03/13 03:44:48;;;;;;;0.00;0.00;;;7.30;99.90;;;;;;5019407;28;20223;-70
2021/03/13 03:47:16;;;;;;;0.00;0.00;;;7.30;99.90;;;;;;5031925;28;20209;-70
2021/03/13 03:49:43;;;;;;;0.63;0.50;;;7.40;99.90;;;;;;5023721;28;20197;-71
2021/03/13 03:52:12;;;;;;;0.00;0.00;;;7.40;99.90;;;;;;5023651;28;20205;-70
2021/03/13 03:54:40;;;;;;;0.00;0.00;;;7.40;99.90;;;;;;5024924;28;20231;-72
2021/03/13 03:57:10;;;;;;;0.00;0.00;;;7.30;99.90;;;;;;5031599;28;20201;-72
2021/03/13 03:59:39;;;;;;;0.00;0.00;;;7.40;99.90;;;;;;5019920;28;20243;-72
2021/03/13 04:02:06;;;;;;;0.00;0.00;;;7.40;99.90;;;;;;5028376;28;20208;-74
2021/03/13 04:04:34;;;;;;;0.00;0.00;;;7.30;99.90;;;;;;5017189;28;20200;-74
2021/03/13 04:07:00;;;;;;;0.00;0.00;;;7.30;99.90;;;;;;5016484;28;20197;-73
2021/03/13 04:09:28;;;;;;;0.00;0.00;;;7.30;99.90;;;;;;5012086;28;20232;-74
2021/03/13 04:11:57;;;;;;;0.00;0.00;;;7.30;99.90;;;;;;5013203;28;20608;-74
2021/03/13 04:14:24;;;;;;;0.00;0.00;;;7.30;99.90;;;;;;5014871;28;20654;-74
2021/03/13 04:16:52;;;;;;;0.00;0.00;;;7.30;99.90;;;;;;5014394;28;20565;-74
2021/03/13 04:19:19;;;;;;;0.00;0.00;;;7.30;99.90;;;;;;5014110;28;20224;-74
2021/03/13 04:21:47;;;;;;;0.10;0.10;;;7.40;99.90;;;;;;5014929;28;20196;-74
2021/03/13 04:24:14;;;;;;;0.00;0.00;;;7.40;99.90;;;;;;5011789;28;20209;-73
2021/03/13 04:26:43;;;;;;;0.50;0.50;;;7.40;99.90;;;;;;5015966;28;20196;-73
2021/03/13 04:29:11;;;;;;;0.10;0.10;;;7.40;99.90;;;;;;5014253;28;20204;-73
2021/03/13 04:31:38;;;;;;;0.00;0.00;;;7.40;99.90;;;;;;5013061;28;20561;-73
2021/03/13 04:34:06;;;;;;;0.00;0.00;;;7.50;99.90;;;;;;5012570;28;20207;-74
2021/03/13 04:36:33;;;;;;;0.00;0.00;;;7.40;99.90;;;;;;5009638;28;20196;-73
2021/03/13 04:39:03;;;;;;;0.00;0.00;;;7.40;99.90;;;;;;5012213;28;20229;-73
2021/03/13 04:41:32;;;;;;;0.00;0.00;;;7.40;99.90;;;;;;5016131;28;20219;-73
2021/03/13 04:43:59;;;;;;;0.00;0.00;;;7.40;99.90;;;;;;5014764;28;20610;-72
2021/03/13 04:46:27;;;;;;;0.00;0.00;;;7.30;99.90;;;;;;5012672;28;20204;-72
2021/03/13 04:48:54;;;;;;;0.00;0.00;;;7.10;99.90;;;;;;5013946;28;20662;-72
2021/03/13 04:51:20;;;;;;;0.00;0.00;;;6.90;99.90;;;;;;5016569;28;20657;-73
2021/03/13 04:53:47;;;;;;;0.00;0.00;;;6.80;99.90;;;;;;5014046;28;20205;-73
2021/03/13 04:56:14;;;;;;;0.00;0.00;;;6.70;99.90;;;;;;5016138;28;20207;-73
2021/03/13 04:58:41;;;;;;;0.00;0.00;;;6.60;99.90;;;;;;5015255;28;20223;-71
2021/03/13 05:01:08;;;;;;;0.00;0.00;;;6.60;99.90;;;;;;5013570;28;20196;-73
2021/03/13 05:03:35;;;;;;;0.00;0.00;;;6.70;99.90;;;;;;5017894;28;20201;-72
2021/03/13 05:06:02;;;;;;;0.13;0.13;;;6.60;99.90;;;;;;5016927;28;20200;-71
2021/03/13 05:08:28;;;;;;;0.00;0.00;;;6.60;99.90;;;;;;5014610;28;20538;-71
2021/03/13 05:10:55;;;;;;;0.00;0.00;;;6.60;99.90;;;;;;5009763;28;20212;-72
2021/03/13 05:13:21;;;;;;;5.73;1.17;;;6.60;99.90;;;;;;5015696;28;20666;-71
2021/03/13 05:15:48;;;;;;;5.67;1.07;;;6.70;99.90;;;;;;5013682;28;22120;-70
2021/03/13 05:18:14;;;;;;;4.63;1.23;;;6.60;99.90;;;;;;5016934;28;20239;-70
2021/03/13 05:20:42;;;;;;;5.77;1.20;;;6.60;99.90;;;;;;5011633;28;20228;-72
2021/03/13 05:23:08;;;;;;;3.13;1.40;;;6.60;99.90;;;;;;5017699;28;20204;-71
2021/03/13 05:25:35;;;;;;;6.80;1.20;;;6.50;99.90;;;;;;5016617;28;20816;-70
2021/03/13 05:28:01;;;;;;;8.43;1.80;;;6.50;99.90;;;;;;5011935;28;20569;-70
2021/03/13 05:30:27;;;;;;;4.37;1.20;;;6.50;99.90;;;;;;5011929;28;20258;-72
2021/03/13 05:32:54;;;;;;;7.07;1.80;;;6.50;99.90;;;;;;5010171;28;20200;-70
2021/03/13 05:35:21;;;;;;;6.93;1.70;;;6.60;99.90;;;;;;5009776;28;20197;-70
2021/03/13 05:37:48;;;;;;;6.77;1.90;;;6.60;99.90;;;;;;5013954;28;20623;-70
2021/03/13 05:40:15;;;;;;;3.40;1.20;;;6.60;99.90;;;;;;5012975;28;20228;-71
2021/03/13 05:42:42;;;;;;;4.77;1.33;;;6.60;99.90;;;;;;5014350;28;20201;-71
2021/03/13 05:45:10;;;;;;;7.57;2.33;;;6.60;99.90;;;;;;5012322;28;20200;-71
2021/03/13 05:47:37;;;;;;;4.60;1.50;;;6.60;99.90;;;;;;5010922;28;20203;-69
2021/03/13 05:50:07;;;;;;;8.40;1.67;;;6.60;99.90;;;;;;5014121;28;20210;-71
2021/03/13 05:52:34;;;;;;;8.30;1.80;;;6.50;99.90;;;;;;5010921;28;20208;-70
2021/03/13 05:55:04;;;;;;;6.37;1.70;;;6.50;99.90;;;;;;5013634;28;20201;-71
2021/03/13 05:57:31;;;;;;;5.80;1.63;;;6.50;99.90;;;;;;5015872;28;20211;-70
2021/03/13 05:59:58;;;;;;;4.43;1.40;;;6.50;99.90;;;;;;5012509;28;20355;-70
2021/03/13 06:02:25;;;;;;;8.67;2.43;;;6.50;99.90;;;;;;5010264;28;20201;-71
2021/03/13 06:04:52;;;;;;;6.03;2.00;;;6.50;99.90;;;;;;5016511;28;20756;-72
2021/03/13 06:07:20;;;;;;;10.63;2.93;;;6.60;99.90;;;;;;5014057;28;20661;-70
2021/03/13 06:09:49;;;;;;;5.73;1.60;;;6.60;99.90;;;;;;5007031;28;20242;-70
2021/03/13 06:12:17;;;;;;;6.17;1.90;;;6.60;99.90;;;;;;5013508;28;20717;-70
2021/03/13 06:14:47;;;;;;;8.10;2.23;;;6.60;99.90;;;;;;5010380;28;20726;-69
2021/03/13 06:17:13;;;;;;;9.10;2.13;;;6.60;99.90;;;;;;5014785;28;20323;-69
2021/03/13 06:19:51;;;;;;;6.73;2.13;;;6.60;99.90;;;;;;5017503;28;20340;-69
2021/03/13 06:22:36;;;;;;;10.97;2.50;;;6.60;99.90;;;;;;5016491;28;20247;-70
2021/03/13 06:25:16;;;;;;;7.40;2.10;;;6.60;99.90;;;;;;5015180;28;20212;-69
2021/03/13 06:27:45;;;;;;;11.37;2.47;;;6.70;99.90;;;;;;5016337;28;20193;-69
2021/03/13 06:30:13;;;;;;;12.63;2.50;;;6.70;99.90;;;;;;5017236;28;20209;-69
2021/03/13 06:32:40;;;;;;;12.47;2.33;;;6.80;99.90;;;;;;5014715;28;20201;-69
2021/03/13 06:35:22;;;;;;;12.63;3.17;;;6.90;99.90;;;;;;5012766;28;20620;-69
2021/03/13 06:37:49;;;;;;;8.53;2.57;;;6.90;99.90;;;;;;5015885;28;20192;-69
2021/03/13 06:40:37;;;;;;;9.03;2.20;;;7.00;99.90;;;;;;5016667;28;20229;-68
2021/03/13 06:43:22;;;;;;;11.83;2.70;;;7.00;99.90;;;;;;5008427;28;20207;-69
2021/03/13 06:45:55;;;;;;;8.93;2.50;;;7.00;99.90;;;;;;5016278;28;20203;-69
2021/03/13 06:48:29;;;;;;;15.43;3.03;;;7.00;99.90;;;;;;5019355;28;20204;-68
2021/03/13 06:51:21;;;;;;;14.30;2.87;;;7.10;99.90;;;;;;5016749;28;20196;-69
2021/03/13 06:54:11;;;;;;;8.10;1.50;;;7.10;99.90;;;;;;5015050;28;20238;-69
2021/03/13 06:56:43;;;;;;;10.23;2.53;;;7.10;99.90;;;;;;5017035;28;20204;-68
2021/03/13 06:59:21;;;;;;;13.57;2.70;;;7.10;99.90;;;;;;5017123;28;20228;-69
2021/03/13 07:01:58;;;;;;;12.93;2.90;;;7.10;99.90;;;;;;5018505;28;20207;-68
2021/03/13 07:04:35;;;;;;;12.20;3.17;;;7.20;99.90;;;;;;5015343;28;20595;-68
2021/03/13 07:07:02;;;;;;;7.63;2.03;;;7.20;99.90;;;;;;5013552;28;20291;-68
2021/03/13 07:09:51;;;;;;;15.10;2.60;;;7.20;99.90;;;;;;5014480;28;20243;-68
2021/03/13 07:12:29;;;;;;;10.53;2.60;;;7.20;99.90;;;;;;5015624;28;20654;-68
2021/03/13 07:14:58;;;;;;;8.70;2.33;;;7.10;99.90;;;;;;5013642;28;20669;-69
2021/03/13 07:17:26;;;;;;;10.07;2.47;;;7.20;99.90;;;;;;5015143;28;20197;-68
2021/03/13 07:19:52;;;;;;;12.33;2.80;;;7.30;99.90;;;;;;5015374;28;20232;-68
2021/03/13 07:22:19;;;;;;;9.93;2.77;;;7.30;99.90;;;;;;5015125;28;20193;-68
2021/03/13 07:24:49;;;;;;;12.17;2.90;;;7.40;99.90;;;;;;5015915;28;20250;-68
2021/03/13 07:27:21;;;;;;;11.47;2.97;;;7.40;99.90;;;;;;5013119;28;20689;-68
2021/03/13 07:29:51;;;;;;;12.77;2.83;;;7.40;99.90;;;;;;5019439;28;20707;-68
2021/03/13 07:32:21;;;;;;;11.37;3.10;;;7.40;99.90;;;;;;5012904;28;20219;-68
2021/03/13 07:34:49;;;;;;;10.03;2.50;;;7.20;99.90;;;;;;5012428;28;20672;-68
2021/03/13 07:37:18;;;;;;;13.27;2.70;;;7.10;99.90;;;;;;5014759;28;21679;-68
2021/03/13 07:39:47;;;;;;;9.40;2.73;;;7.30;99.90;;;;;;5011183;28;20216;-68
2021/03/13 07:42:17;;;;;;;8.90;2.60;;;7.50;99.90;;;;;;5013761;28;20207;-68
2021/03/13 07:44:45;;;;;;;13.23;3.33;;;7.50;99.90;;;;;;5016339;28;20197;-68
2021/03/13 07:47:13;;;;;;;17.43;4.20;;;7.60;99.90;;;;;;5014229;28;20205;-68
2021/03/13 07:49:41;;;;;;;18.90;3.97;;;7.90;99.90;;;;;;5015240;28;20201;-68
2021/03/13 07:52:09;;;;;;;21.27;4.60;;;8.20;99.90;;;;;;5015488;28;20274;-68
2021/03/13 07:54:38;;;;;;;14.67;4.13;;;8.40;99.90;;;;;;5017031;28;20207;-68
2021/03/13 07:57:07;;;;;;;19.37;4.13;;;8.50;99.90;;;;;;5017248;28;20204;-68
2021/03/13 07:59:45;;;;;;;18.70;5.13;;;8.60;99.90;;;;;;5014160;28;20224;-68
2021/03/13 08:02:40;;;;;;;22.20;4.40;;;8.70;99.90;;;;;;5017748;28;20204;-68
2021/03/13 08:05:13;;;;;;;23.77;4.83;;;8.90;99.90;;;;;;5007433;28;20568;-69
2021/03/13 08:07:55;;;;;;;22.00;5.03;;;9.00;99.90;;;;;;5012674;28;20204;-68
2021/03/13 08:10:42;;;;;;;25.97;5.83;;;9.10;99.90;;;;;;5013827;28;20236;-68
2021/03/13 08:13:09;;;;;;;18.97;4.83;;;9.20;99.90;;;;;;5016873;28;20262;-68
2021/03/13 08:15:46;;;;;;;18.43;4.20;;;9.40;99.90;;;;;;5015627;28;20765;-68
2021/03/13 08:18:39;;;;;;;22.03;4.83;;;9.60;99.90;;;;;;5012446;28;20604;-69
2021/03/13 08:21:43;;;;;;;23.03;5.33;;;9.80;99.90;;;;;;5014488;28;20204;-68
2021/03/13 08:24:11;;;;;;;23.07;4.47;;;9.90;99.90;;;;;;5015484;28;20560;-68
2021/03/13 08:27:11;;;;;;;20.20;4.60;;;9.60;99.90;;;;;;5013524;28;20200;-68
2021/03/13 08:29:53;;;;;;;20.90;5.73;;;9.10;99.90;;;;;;5013750;28;20204;-66
2021/03/13 08:33:02;;;;;;;17.17;4.80;;;8.70;99.90;;;;;;5038528;28;20200;-65
2021/03/13 08:35:37;;;;;;;20.60;4.83;;;8.60;99.90;;;;;;5016564;28;20247;-67
2021/03/13 08:38:05;;;;;;;20.17;5.10;;;8.40;99.90;;;;;;5032544;28;20192;-68
2021/03/13 08:40:32;;;;;;;17.60;4.63;;;8.40;99.90;;;;;;5031339;28;20232;-66
2021/03/13 08:42:58;;;;;;;22.87;5.30;;;8.40;99.90;;;;;;5024666;28;20196;-66
2021/03/13 08:45:34;;;;;;;19.23;4.93;;;8.40;99.90;;;;;;5031913;28;20642;-67
2021/03/13 08:48:00;;;;;;;24.60;4.83;;;8.40;99.90;;;;;;5025868;28;20333;-67
2021/03/13 08:50:53;;;;;;;21.67;4.80;;;8.50;99.90;;;;;;5029580;28;20294;-67
2021/03/13 08:53:34;;;;;;;20.50;4.90;;;8.70;99.90;;;;;;5026513;28;20197;-66
2021/03/13 08:56:01;;;;;;;16.50;4.47;;;8.70;99.90;;;;;;5029647;28;20197;-67
2021/03/13 08:58:42;;;;;;;21.70;5.90;;;8.80;99.90;;;;;;5031466;28;20196;-67
2021/03/13 09:01:19;;;;;;;23.57;5.63;;;8.80;99.90;;;;;;5022311;28;20204;-66
2021/03/13 09:03:50;;;;;;;19.37;4.53;;;8.80;99.90;;;;;;5020161;28;20204;-67
2021/03/13 09:06:17;;;;;;;21.67;4.30;;;8.70;99.90;;;;;;5019038;28;20196;-66
2021/03/13 09:08:45;;;;;;;12.57;4.77;;;8.70;99.90;;;;;;5018386;28;20207;-67
2021/03/13 09:11:12;;;;;;;23.10;4.80;;;8.60;99.90;;;;;;5020470;28;20540;-67
2021/03/13 09:13:38;;;;;;;19.97;5.23;;;8.50;99.90;;;;;;5017523;28;20207;-67
2021/03/13 09:16:18;;;;;;;20.67;5.40;;;8.70;99.90;;;;;;5020303;28;20204;-67
2021/03/13 09:18:55;;;;;;;16.00;4.03;;;9.40;99.90;;;;;;5017617;28;20262;-67
2021/03/13 09:21:39;;;;;;;17.23;4.77;;;9.50;99.90;;;;;;5022344;28;20204;-66
2021/03/13 09:24:09;;;;;;;14.70;4.40;;;9.90;99.90;;;;;;5020138;28;20226;-67
2021/03/13 09:26:36;;;;;;;12.03;3.57;;;10.10;99.90;;;;;;5020467;28;20603;-67
2021/03/13 09:29:03;;;;;;;17.57;4.63;;;10.00;99.90;;;;;;5019216;28;20208;-67
2021/03/13 09:31:29;;;;;;;14.57;4.07;;;10.10;99.90;;;;;;5016905;28;20208;-68
2021/03/13 09:34:14;;;;;;;20.57;4.23;;;9.90;99.90;;;;;;5017100;28;20219;-67
2021/03/13 09:36:41;;;;;;;13.63;3.57;;;9.60;99.90;;;;;;5018273;28;20204;-67
2021/03/13 09:39:08;;;;;;;19.90;4.43;;;9.50;99.90;;;;;;5018506;28;20259;-66
2021/03/13 09:41:35;;;;;;;13.50;4.90;;;9.50;99.90;;;;;;5017605;28;20196;-68
2021/03/13 09:44:01;;;;;;;17.17;4.10;;;9.50;99.90;;;;;;5021681;28;20207;-68
2021/03/13 09:46:31;;;;;;;15.77;4.13;;;9.30;99.90;;;;;;5021334;28;20653;-67
2021/03/13 09:48:58;;;;;;;21.10;4.47;;;9.20;99.90;;;;;;5021126;28;20235;-66
2021/03/13 09:51:26;;;;;;;14.03;4.40;;;9.30;99.90;;;;;;5024348;28;20207;-66
2021/03/13 09:53:53;;;;;;;19.73;3.73;;;9.30;99.90;;;;;;5033677;28;20199;-66
2021/03/13 09:56:30;;;;;;;17.60;4.23;;;9.10;99.90;;;;;;5033379;28;20353;-65
2021/03/13 09:58:58;;;;;;;15.83;3.60;;;8.80;99.90;;;;;;5034367;28;20192;-66
2021/03/13 10:01:25;;;;;;;15.57;4.03;;;8.60;99.90;;;;;;5032195;28;20204;-68
2021/03/13 10:03:52;;;;;;;26.73;5.40;;;8.30;99.90;;;;;;5032679;28;20739;-67
2021/03/13 10:06:19;;;;;;;19.60;4.57;;;8.00;99.90;;;;;;5034620;28;20207;-67
2021/03/13 10:08:46;;;;;;;26.63;6.30;;;7.80;99.90;;;;;;5032286;28;20207;-67
2021/03/13 10:11:13;;;;;;;20.63;5.00;;;7.60;99.90;;;;;;5032022;28;20193;-67
2021/03/13 10:13:40;;;;;;;12.47;3.77;;;7.40;99.90;;;;;;5034162;28;20270;-67
2021/03/13 10:16:11;;;;;;;17.20;4.47;;;7.50;99.90;;;;;;5033468;28;20208;-64
2021/03/13 10:18:38;;;;;;;15.97;4.17;;;8.00;99.90;;;;;;5035974;28;20192;-65
2021/03/13 10:21:07;;;;;;;16.77;3.87;;;8.20;99.90;;;;;;5019260;28;20455;-64
2021/03/13 10:23:35;;;;;;;20.50;3.77;;;8.40;99.90;;;;;;5019676;28;20217;-66
2021/03/13 10:26:03;;;;;;;21.33;4.50;;;8.40;99.90;;;;;;5019693;28;20208;-66
2021/03/13 10:28:31;;;;;;;23.60;4.53;;;8.40;99.90;;;;;;5020053;28;20208;-65
2021/03/13 10:31:07;;;;;;;17.50;4.27;;;8.40;99.90;;;;;;5019689;28;20204;-64
2021/03/13 10:33:35;;;;;;;13.90;4.13;;;8.60;99.90;;;;;;5014295;28;20196;-67
2021/03/13 10:36:04;;;;;;;15.53;4.33;;;8.40;99.90;;;;;;5013077;28;20573;-68
2021/03/13 10:38:39;;;;;;;19.47;4.43;;;8.20;99.90;;;;;;5017021;28;20204;-64
2021/03/13 10:41:08;;;;;;;20.70;4.03;;;8.10;99.90;;;;;;5015468;28;20310;-66
2021/03/13 10:43:38;;;;;;;15.30;4.07;;;8.10;99.90;;;;;;5013037;28;20201;-66
2021/03/13 10:46:16;;;;;;;10.63;2.50;;;8.00;99.90;;;;;;5009973;28;20284;-66
2021/03/13 10:49:07;;;;;;;19.53;3.80;;;7.80;99.90;;;;;;5008802;28;20207;-65
2021/03/13 10:51:40;;;;;;;13.10;3.73;;;7.50;99.90;;;;;;5000693;28;20685;-65
2021/03/13 10:54:20;;;;;;;12.77;3.60;;;7.20;99.90;;;;;;5020383;28;20251;-68
2021/03/13 10:56:47;;;;;;;16.13;3.90;;;7.10;99.90;;;;;;5019021;28;20200;-70
2021/03/13 10:59:13;;;;;;;20.23;3.33;;;7.20;99.90;;;;;;5015973;28;20224;-65
2021/03/13 11:01:45;;;;;;;24.17;4.77;;;7.70;99.90;;;;;;5012144;28;20214;-67
2021/03/13 11:04:12;;;;;;;16.20;3.70;;;8.20;99.90;;;;;;5013029;28;20204;-68
2021/03/13 11:06:38;;;;;;;11.57;3.30;;;8.30;99.90;;;;;;5014643;28;20211;-67
2021/03/13 11:09:06;;;;;;;14.93;3.53;;;8.40;99.90;;;;;;5015260;28;20337;-68
2021/03/13 11:11:34;;;;;;;11.53;3.90;;;8.50;99.90;;;;;;5012060;28;20207;-66
2021/03/13 11:14:01;;;;;;;24.47;3.57;;;8.50;99.90;;;;;;5012340;28;20258;-76
2021/03/13 11:16:27;;;;;;;15.73;3.57;;;8.50;99.90;;;;;;5019525;28;20205;-70
2021/03/13 11:18:56;;;;;;;8.73;2.73;;;8.60;99.90;;;;;;5018545;28;20209;-66
2021/03/13 11:21:23;;;;;;;11.20;3.00;;;8.60;99.90;;;;;;5018620;28;20208;-69
2021/03/13 11:23:50;;;;;;;8.17;2.63;;;8.50;99.90;;;;;;5017101;28;20562;-67
2021/03/13 11:26:17;;;;;;;16.13;3.70;;;8.50;99.90;;;;;;5013973;28;21503;-68
2021/03/13 11:28:43;;;;;;;12.53;3.43;;;8.70;99.90;;;;;;5015181;28;20227;-68
2021/03/13 11:31:10;;;;;;;14.33;3.40;;;9.20;99.90;;;;;;5017765;28;20209;-67
2021/03/13 11:33:37;;;;;;;16.43;3.80;;;9.20;99.90;;;;;;5013297;28;20197;-68
2021/03/13 11:36:06;;;;;;;10.23;3.30;;;9.40;99.90;;;;;;5015866;28;20204;-67
2021/03/13 11:38:33;;;;;;;14.77;2.87;;;9.40;99.90;;;;;;5015089;28;20321;-67
2021/03/13 11:41:02;;;;;;;13.37;3.73;;;9.50;99.90;;;;;;5014835;28;20816;-72
2021/03/13 11:43:28;;;;;;;20.07;4.03;;;9.40;99.90;;;;;;5011217;28;20196;-68
2021/03/13 11:45:55;;;;;;;14.60;4.37;;;9.20;99.90;;;;;;5012840;28;20201;-66
2021/03/13 11:48:22;;;;;;;14.27;3.53;;;9.40;99.90;;;;;;5013468;28;20205;-67
2021/03/13 11:50:49;;;;;;;14.90;3.90;;;9.40;99.90;;;;;;5015734;28;20201;-67
2021/03/13 11:53:18;;;;;;;14.63;4.07;;;9.30;99.90;;;;;;5013540;28;20211;-68
2021/03/13 11:55:45;;;;;;;10.53;2.63;;;9.20;99.90;;;;;;5014577;28;20301;-65
2021/03/13 11:58:11;;;;;;;6.27;2.33;;;9.20;99.90;;;;;;5018787;28;20223;-66
2021/03/13 12:00:38;;;;;;;6.53;2.33;;;9.40;99.90;;;;;;5014869;28;20228;-67
2021/03/13 12:03:05;;;;;;;7.53;1.93;;;9.70;99.90;;;;;;5011371;28;20204;-68
2021/03/13 12:05:31;;;;;;;6.93;2.03;;;10.50;99.90;;;;;;5010981;28;20211;-65
2021/03/13 12:07:58;;;;;;;8.73;2.13;;;10.50;99.90;;;;;;5016743;28;20211;-65
2021/03/13 12:10:25;;;;;;;6.93;2.37;;;10.20;99.90;;;;;;5014318;28;20239;-67
2021/03/13 12:12:52;;;;;;;13.23;3.13;;;10.10;99.90;;;;;;5014773;28;20260;-68
2021/03/13 12:15:22;;;;;;;10.00;2.50;;;9.90;99.90;;;;;;5019155;28;20196;-68
2021/03/13 12:17:49;;;;;;;9.23;2.47;;;9.70;99.90;;;;;;5012257;28;20550;-68
2021/03/13 12:20:16;;;;;;;11.43;2.87;;;9.90;99.90;;;;;;5013714;28;20228;-67
2021/03/13 12:22:42;;;;;;;8.03;2.73;;;10.60;99.90;;;;;;5012014;28;20204;-67
2021/03/13 12:25:09;;;;;;;11.80;2.73;;;10.90;99.90;;;;;;5010996;28;20266;-68
2021/03/13 12:27:39;;;;;;;7.83;2.50;;;10.40;99.90;;;;;;5018488;28;20818;-66
2021/03/13 12:30:08;;;;;;;8.90;2.70;;;9.70;99.90;;;;;;5016480;28;21122;-70
2021/03/13 12:32:36;;;;;;;8.50;2.13;;;8.70;99.90;;;;;;5011134;28;20208;-70
2021/03/13 12:35:03;;;;;;;10.40;2.10;;;8.10;99.90;;;;;;5014311;28;21100;-69
2021/03/13 12:37:30;;;;;;;7.30;2.30;;;7.80;99.90;;;;;;5019022;28;20869;-66
2021/03/13 12:39:57;;;;;;;7.57;2.13;;;7.60;99.90;;;;;;5013367;28;20242;-67
2021/03/13 12:42:24;;;;;;;5.33;1.40;;;7.50;99.90;;;;;;5012128;28;20287;-69
2021/03/13 12:44:52;;;;;;;6.87;2.23;;;8.30;99.90;;;;;;5012154;28;20220;-68
2021/03/13 12:47:18;;;;;;;9.57;2.33;;;9.10;99.90;;;;;;5012025;28;20546;-68
2021/03/13 12:49:45;;;;;;;12.80;3.07;;;9.60;99.90;;;;;;5015170;28;20208;-67
2021/03/13 12:52:12;;;;;;;16.57;2.47;;;10.10;99.90;;;;;;5013059;28;22360;-71
2021/03/13 12:54:38;;;;;;;8.13;2.10;;;10.70;99.90;;;;;;5014788;28;20200;-69
2021/03/13 12:57:05;;;;;;;5.87;2.47;;;11.10;99.90;;;;;;5013474;28;20232;-66
2021/03/13 12:59:32;;;;;;;6.50;2.93;;;10.70;99.90;;;;;;5013302;28;20740;-65
2021/03/13 13:01:59;;;;;;;7.67;2.10;;;10.30;99.90;;;;;;5015016;28;20255;-64
2021/03/13 13:04:26;;;;;;;11.73;2.47;;;10.20;99.90;;;;;;5015080;28;20204;-67